createdAt,value
2023-02-15T00:02:11.106Z,102976.13
2023-02-15T00:04:51.185Z,102987.25
2023-02-15T00:07:21.087Z,102987.72
2023-02-15T00:09:49.314Z,102988.28
2023-02-15T00:12:18.281Z,102988.09
2023-02-15T00:14:47.578Z,102988.84
2023-02-15T00:17:15.743Z,102983.41
2023-02-15T00:19:43.974Z,102969.22
2023-02-15T00:22:11.948Z,102966.22
2023-02-15T00:24:39.937Z,102964.22
2023-02-15T00:27:13.460Z,102961.47
2023-02-15T00:29:41.342Z,102963.03
2023-02-15T00:32:10.588Z,102967.72
2023-02-15T00:34:38.484Z,102968.72
2023-02-15T00:37:06.381Z,102963.13
2023-02-15T00:39:34.306Z,102966.28
2023-02-15T00:42:02.290Z,102958.94
2023-02-15T00:44:30.295Z,102958.13
2023-02-15T00:46:58.230Z,102962.34
2023-02-15T00:49:27.577Z,102961.56
2023-02-15T00:51:55.472Z,102963.25
2023-02-15T00:54:23.371Z,102965.09
2023-02-15T00:56:51.559Z,102966.38
2023-02-15T00:59:19.450Z,102958.06
2023-02-15T01:01:49.401Z,102960.13
2023-02-15T01:04:17.398Z,102962.19
2023-02-15T01:06:46.691Z,102946.66
2023-02-15T01:09:14.872Z,102944.66
2023-02-15T01:11:42.776Z,102949.25
2023-02-15T01:14:10.652Z,102943.25
2023-02-15T01:16:40.272Z,102939.91
2023-02-15T01:19:08.263Z,102943.47
2023-02-15T01:21:36.599Z,102936.63
2023-02-15T01:24:06.133Z,102934.66
2023-02-15T01:26:34.007Z,102933.91
2023-02-15T01:29:02.138Z,102934.94
2023-02-15T01:31:30.103Z,102927.09
2023-02-15T01:33:58.133Z,102923.47
2023-02-15T01:36:26.021Z,102916.50
2023-02-15T01:38:53.901Z,102922.81
2023-02-15T01:41:23.908Z,102920.88
2023-02-15T01:43:54.577Z,102915.72
2023-02-15T01:46:26.811Z,102908.72
2023-02-15T01:48:58.840Z,102906.91
2023-02-15T01:51:29.757Z,102901.66
2023-02-15T01:54:03.494Z,102892.91
2023-02-15T01:56:36.814Z,102880.44
2023-02-15T01:59:09.887Z,102883.97
2023-02-15T02:01:37.944Z,102885.06
2023-02-15T02:04:13.865Z,102889.34
2023-02-15T02:06:42.199Z,102880.44
2023-02-15T02:09:11.258Z,102876.06
2023-02-15T02:11:42.392Z,102872.75
2023-02-15T02:14:14.630Z,102873.06
2023-02-15T02:16:50.331Z,102874.53
2023-02-15T02:19:53.334Z,102872.13
2023-02-15T02:23:00.736Z,102876.19
2023-02-15T02:26:17.825Z,102875.44
2023-02-15T02:29:24.499Z,102875.56
2023-02-15T02:32:21.479Z,102866.81
2023-02-15T02:34:57.532Z,102860.53
2023-02-15T02:37:32.956Z,102863.63
2023-02-15T02:40:10.161Z,102854.75
2023-02-15T02:42:41.676Z,102853.97
2023-02-15T02:45:12.485Z,102852.88
2023-02-15T02:47:45.986Z,102858.44
2023-02-15T02:50:20.139Z,102850.13
2023-02-15T02:52:49.575Z,102841.53
2023-02-15T02:55:23.333Z,102850.09
2023-02-15T02:57:55.436Z,102841.16
2023-02-15T03:00:25.702Z,102844.19
2023-02-15T03:02:59.341Z,102841.19
2023-02-15T03:05:31.620Z,102838.13
2023-02-15T03:08:02.173Z,102828.25
2023-02-15T03:10:31.601Z,102832.78
2023-02-15T03:12:59.643Z,102831.78
2023-02-15T03:15:52.536Z,102835.72
2023-02-15T03:18:27.509Z,102831.34
2023-02-15T03:20:58.620Z,102831.28
2023-02-15T03:23:30.013Z,102832.91
2023-02-15T03:26:03.861Z,102831.16
2023-02-15T03:28:38.627Z,102822.31
2023-02-15T03:31:09.322Z,102822.97
2023-02-15T03:33:42.950Z,102824.31
2023-02-15T03:36:20.846Z,102815.22
2023-02-15T03:38:53.932Z,102826.09
2023-02-15T03:41:26.141Z,102821.28
2023-02-15T03:43:58.307Z,102811.31
2023-02-15T03:46:30.516Z,102815.16
2023-02-15T03:49:04.025Z,102816.13
2023-02-15T03:51:39.158Z,102810.50
2023-02-15T03:54:10.887Z,102804.63
2023-02-15T03:56:41.158Z,102805.72
2023-02-15T03:59:26.583Z,102810.63
2023-02-15T04:02:07.723Z,102809.25
2023-02-15T04:04:37.843Z,102792.34
2023-02-15T04:07:08.523Z,102802.75
2023-02-15T04:09:54.188Z,102804.41
2023-02-15T04:12:22.520Z,102798.50
2023-02-15T04:15:08.018Z,102792.25
2023-02-15T04:17:37.888Z,102800.28
2023-02-15T04:20:24.127Z,102798.31
2023-02-15T04:23:10.775Z,102789.81
2023-02-15T04:25:38.709Z,102785.44
2023-02-15T04:28:08.541Z,102791.56
2023-02-15T04:30:36.475Z,102787.59
2023-02-15T04:33:04.492Z,102785.84
2023-02-15T04:35:32.629Z,102792.53
2023-02-15T04:38:01.983Z,102793.88
2023-02-15T04:40:30.567Z,102786.72
2023-02-15T04:42:58.457Z,102790.81
2023-02-15T04:45:26.365Z,102780.94
2023-02-15T04:47:54.243Z,102775.72
2023-02-15T04:50:22.083Z,102767.53
2023-02-15T04:52:50.089Z,102763.03
2023-02-15T04:55:19.394Z,102757.69
2023-02-15T04:57:48.094Z,102757.00
2023-02-15T05:00:16.489Z,102744.81
2023-02-15T05:02:44.334Z,102743.28
2023-02-15T05:05:13.992Z,102747.34
2023-02-15T05:07:42.055Z,102735.84
2023-02-15T05:10:10.994Z,102734.25
2023-02-15T05:12:40.216Z,102727.56
2023-02-15T05:15:08.659Z,102736.94
2023-02-15T05:17:36.659Z,102739.03
2023-02-15T05:20:05.042Z,102740.75
2023-02-15T05:22:32.937Z,102740.97
2023-02-15T05:25:17.592Z,102732.63
2023-02-15T05:28:05.324Z,102721.84
2023-02-15T05:30:33.525Z,102742.78
2023-02-15T05:33:01.566Z,102730.88
2023-02-15T05:35:29.397Z,102742.00
2023-02-15T05:37:57.254Z,102734.44
2023-02-15T05:40:25.128Z,102726.75
2023-02-15T05:42:54.419Z,102715.03
2023-02-15T05:45:22.300Z,102718.00
2023-02-15T05:47:50.141Z,102730.38
2023-02-15T05:50:18.407Z,102725.47
2023-02-15T05:52:48.093Z,102721.13
2023-02-15T05:55:16.023Z,102714.59
2023-02-15T05:57:43.926Z,102715.34
2023-02-15T06:00:14.832Z,102720.53
2023-02-15T06:02:43.067Z,102723.03
2023-02-15T06:05:10.992Z,102713.97
2023-02-15T06:07:38.859Z,102707.94
2023-02-15T06:10:08.259Z,102720.16
2023-02-15T06:12:36.089Z,102711.59
2023-02-15T06:15:03.998Z,102711.38
2023-02-15T06:17:33.829Z,102719.38
2023-02-15T06:20:01.795Z,102714.94
2023-02-15T06:22:29.648Z,102716.94
2023-02-15T06:24:57.515Z,102721.22
2023-02-15T06:27:25.510Z,102721.38
2023-02-15T06:29:53.426Z,102739.91
2023-02-15T06:32:21.282Z,102732.69
2023-02-15T06:34:50.559Z,102727.97
2023-02-15T06:37:18.437Z,102730.69
2023-02-15T06:39:46.333Z,102721.66
2023-02-15T06:42:14.184Z,102706.22
2023-02-15T06:44:42.208Z,102710.50
2023-02-15T06:47:10.041Z,102704.34
2023-02-15T06:49:37.924Z,102706.53
2023-02-15T06:52:07.548Z,102711.63
2023-02-15T06:54:35.429Z,102708.72
2023-02-15T06:57:03.531Z,102706.59
2023-02-15T06:59:31.411Z,102714.78
2023-02-15T07:01:59.807Z,102708.84
2023-02-15T07:04:29.611Z,102707.16
2023-02-15T07:06:57.897Z,102701.13
2023-02-15T07:09:27.469Z,102703.06
2023-02-15T07:12:12.795Z,102713.59
2023-02-15T07:14:41.533Z,102700.47
2023-02-15T07:17:27.480Z,102695.97
2023-02-15T07:19:57.270Z,102693.31
2023-02-15T07:22:25.140Z,102697.38
2023-02-15T07:24:55.743Z,102690.19
2023-02-15T07:27:23.741Z,102681.56
2023-02-15T07:29:51.710Z,102677.34
2023-02-15T07:32:19.763Z,102673.94
2023-02-15T07:34:47.720Z,102675.97
2023-02-15T07:37:15.698Z,102676.09
2023-02-15T07:39:43.671Z,102676.59
2023-02-15T07:42:12.917Z,102674.81
2023-02-15T07:44:41.482Z,102668.25
2023-02-15T07:47:09.480Z,102662.41
2023-02-15T07:49:37.479Z,102658.84
2023-02-15T07:52:05.600Z,102656.88
2023-02-15T07:54:33.475Z,102662.16
2023-02-15T07:57:02.655Z,102651.22
2023-02-15T07:59:32.250Z,102663.28
2023-02-15T08:02:00.160Z,102671.53
2023-02-15T08:04:28.116Z,102655.75
2023-02-15T08:06:56.386Z,102651.34
2023-02-15T08:09:24.530Z,102648.59
2023-02-15T08:11:52.334Z,102652.22
2023-02-15T08:14:21.510Z,102655.13
2023-02-15T08:16:53.182Z,102657.66
2023-02-15T08:19:23.524Z,102648.78
2023-02-15T08:21:54.401Z,102646.09
2023-02-15T08:24:23.979Z,102650.47
2023-02-15T08:26:52.625Z,102639.53
2023-02-15T08:29:23.399Z,102649.16
2023-02-15T08:31:55.528Z,102648.22
2023-02-15T08:34:23.551Z,102646.94
2023-02-15T08:36:51.924Z,102642.34
2023-02-15T08:39:19.787Z,102633.06
2023-02-15T08:41:49.415Z,102636.16
2023-02-15T08:44:19.140Z,102633.69
2023-02-15T08:46:48.806Z,102626.31
2023-02-15T08:49:20.199Z,102616.41
2023-02-15T08:51:49.323Z,102624.19
2023-02-15T08:54:19.464Z,102606.13
2023-02-15T08:56:48.107Z,102615.03
2023-02-15T08:59:18.695Z,102611.81
2023-02-15T09:01:47.692Z,102605.00
2023-02-15T09:04:16.822Z,102599.78
2023-02-15T09:06:49.385Z,102599.91
2023-02-15T09:09:17.976Z,102607.63
2023-02-15T09:11:47.677Z,102601.81
2023-02-15T09:14:17.497Z,102593.78
2023-02-15T09:16:49.650Z,102603.38
2023-02-15T09:19:18.501Z,102608.13
2023-02-15T09:21:48.314Z,102603.13
2023-02-15T09:24:17.881Z,102598.75
2023-02-15T09:26:49.445Z,102591.72
2023-02-15T09:29:18.996Z,102590.84
2023-02-15T09:31:49.749Z,102592.47
2023-02-15T09:34:19.917Z,102586.69
2023-02-15T09:36:49.524Z,102595.06
2023-02-15T09:39:19.475Z,102597.28
2023-02-15T09:42:18.612Z,102594.09
2023-02-15T09:45:08.127Z,102599.53
2023-02-15T09:47:49.205Z,102592.38
2023-02-15T09:50:27.831Z,102595.28
2023-02-15T09:53:10.667Z,102587.97
2023-02-15T09:55:51.060Z,102589.91
2023-02-15T09:58:27.590Z,102576.94
2023-02-15T10:01:04.650Z,102575.25
2023-02-15T10:03:49.552Z,102571.34
2023-02-15T10:06:34.800Z,102577.03
2023-02-15T10:09:20.021Z,102573.16
2023-02-15T10:12:12.670Z,102574.66
2023-02-15T10:14:59.558Z,102572.19
2023-02-15T10:17:39.793Z,102571.69
2023-02-15T10:20:20.218Z,102558.63
2023-02-15T10:23:07.387Z,102561.06
2023-02-15T10:25:48.427Z,102551.56
2023-02-15T10:28:19.733Z,102543.59
2023-02-15T10:30:50.287Z,102541.53
2023-02-15T10:33:33.126Z,102526.53
2023-02-15T10:36:23.088Z,102518.81
2023-02-15T10:38:58.624Z,102513.03
2023-02-15T10:41:39.162Z,102514.56
2023-02-15T10:44:23.390Z,102509.22
2023-02-15T10:47:07.629Z,102503.94
2023-02-15T10:49:54.052Z,102500.03
2023-02-15T10:52:31.520Z,102506.59
2023-02-15T10:55:09.969Z,102497.41
2023-02-15T10:57:48.907Z,102502.28
2023-02-15T11:00:21.560Z,102496.06
2023-02-15T11:03:08.334Z,102494.00
2023-02-15T11:05:50.109Z,102478.44
2023-02-15T11:08:18.613Z,102480.81
2023-02-15T11:10:52.528Z,102475.66
2023-02-15T11:13:24.814Z,102471.50
2023-02-15T11:15:56.094Z,102472.44
2023-02-15T11:18:30.151Z,102470.28
2023-02-15T11:21:01.984Z,102463.25
2023-02-15T11:23:30.898Z,102457.13
2023-02-15T11:26:01.113Z,102458.22
2023-02-15T11:28:35.224Z,102455.66
2023-02-15T11:31:14.963Z,102446.81
2023-02-15T11:33:48.546Z,102442.38
2023-02-15T11:36:19.772Z,102446.47
2023-02-15T11:38:51.198Z,102440.28
2023-02-15T11:41:25.157Z,102437.19
2023-02-15T11:43:58.673Z,102441.66
2023-02-15T11:46:27.043Z,102424.78
2023-02-15T11:48:55.105Z,102427.56
2023-02-15T11:51:25.024Z,102414.88
2023-02-15T11:53:53.740Z,102417.16
2023-02-15T11:56:24.416Z,102414.47
2023-02-15T11:58:59.116Z,102405.56
2023-02-15T12:01:32.893Z,102410.16
2023-02-15T12:04:04.408Z,102410.13
2023-02-15T12:06:35.689Z,102402.59
2023-02-15T12:09:08.691Z,102400.34
2023-02-15T12:11:39.199Z,102404.88
2023-02-15T12:14:10.601Z,102402.16
2023-02-15T12:16:44.889Z,102400.19
2023-02-15T12:19:32.120Z,102398.22
2023-02-15T12:22:01.909Z,102390.03
2023-02-15T12:24:32.732Z,102389.91
2023-02-15T12:27:04.776Z,102375.44
2023-02-15T12:29:44.073Z,102372.16
2023-02-15T12:32:19.231Z,102376.06
2023-02-15T12:34:48.589Z,102374.28
2023-02-15T12:37:19.543Z,102379.00
2023-02-15T12:39:57.087Z,102370.28
2023-02-15T12:42:26.207Z,102368.38
2023-02-15T12:45:01.970Z,102369.34
2023-02-15T12:47:31.870Z,102359.94
2023-02-15T12:50:12.632Z,102363.00
2023-02-15T12:52:41.062Z,102353.88
2023-02-15T12:55:20.696Z,102342.97
2023-02-15T12:57:49.060Z,102335.63
2023-02-15T13:00:32.730Z,102353.97
2023-02-15T13:03:02.721Z,102352.47
2023-02-15T13:05:35.936Z,102346.84
2023-02-15T13:08:12.044Z,102351.44
2023-02-15T13:10:44.354Z,102354.69
2023-02-15T13:13:13.820Z,102349.13
2023-02-15T13:15:46.396Z,102336.44
2023-02-15T13:18:18.255Z,102333.06
2023-02-15T13:20:47.129Z,102337.31
2023-02-15T13:23:30.984Z,102326.16
2023-02-15T13:26:01.823Z,102327.81
2023-02-15T13:28:40.666Z,102317.88
2023-02-15T13:31:15.251Z,102322.28
2023-02-15T13:33:46.617Z,102314.44
2023-02-15T13:36:23.197Z,102299.66
2023-02-15T13:39:17.728Z,102305.28
2023-02-15T13:41:58.501Z,102295.25
2023-02-15T13:44:42.499Z,102291.50
2023-02-15T13:47:24.061Z,102287.25
2023-02-15T13:50:07.772Z,102291.94
2023-02-15T13:52:42.660Z,102291.03
2023-02-15T13:55:28.579Z,102281.38
2023-02-15T13:58:31.165Z,102288.00
2023-02-15T14:01:09.540Z,102288.72
2023-02-15T14:04:03.153Z,102291.53
2023-02-15T14:06:53.031Z,102297.16
2023-02-15T14:09:33.068Z,102290.28
2023-02-15T14:12:22.897Z,102294.00
2023-02-15T14:15:08.837Z,102296.72
2023-02-15T14:17:49.694Z,102290.91
2023-02-15T14:20:24.005Z,102297.19
2023-02-15T14:23:03.760Z,102279.72
2023-02-15T14:25:38.656Z,102277.03
2023-02-15T14:28:12.545Z,102282.44
2023-02-15T14:30:43.906Z,102275.34
2023-02-15T14:33:33.198Z,102274.38
2023-02-15T14:36:07.270Z,102268.16
2023-02-15T14:38:58.538Z,102268.13
2023-02-15T14:41:33.676Z,102262.50
2023-02-15T14:44:09.359Z,102267.00
2023-02-15T14:46:44.988Z,102257.31
2023-02-15T14:49:15.009Z,102262.25
2023-02-15T14:52:06.307Z,102257.38
2023-02-15T14:55:01.830Z,102262.81
2023-02-15T14:57:36.338Z,102253.50
2023-02-15T15:00:39.011Z,102244.75
2023-02-15T15:03:20.429Z,102247.53
2023-02-15T15:05:53.026Z,102254.91
2023-02-15T15:08:31.359Z,102251.16
2023-02-15T15:11:42.083Z,102244.16
2023-02-15T15:14:32.945Z,102245.91
2023-02-15T15:17:01.723Z,102247.66
2023-02-15T15:20:05.092Z,102242.13
2023-02-15T15:22:34.532Z,102248.78
2023-02-15T15:25:03.711Z,102250.69
2023-02-15T15:27:44.050Z,102255.88
2023-02-15T15:31:00.697Z,102251.56
2023-02-15T15:34:05.516Z,102262.28
2023-02-15T15:37:21.703Z,102259.69
2023-02-15T15:40:26.875Z,102263.63
2023-02-15T15:43:20.454Z,102261.38
2023-02-15T15:46:13.227Z,102255.06
2023-02-15T15:48:43.199Z,102256.97
2023-02-15T15:51:20.094Z,102263.47
2023-02-15T15:53:53.936Z,102254.78
2023-02-15T15:56:25.561Z,102250.09
2023-02-15T15:58:56.566Z,102246.16
2023-02-15T16:01:29.514Z,102250.31
2023-02-15T16:03:59.577Z,102238.03
2023-02-15T16:06:35.684Z,102236.16
2023-02-15T16:09:19.398Z,102244.28
2023-02-15T16:11:50.009Z,102230.31
2023-02-15T16:14:23.541Z,102234.72
2023-02-15T16:16:54.448Z,102237.03
2023-02-15T16:19:29.182Z,102224.75
2023-02-15T16:22:02.686Z,102223.28
2023-02-15T16:24:53.060Z,102222.19
2023-02-15T16:27:38.591Z,102231.50
2023-02-15T16:30:24.072Z,102226.81
2023-02-15T16:32:55.341Z,102235.69
2023-02-15T16:35:24.450Z,102242.28
2023-02-15T16:37:53.743Z,102234.19
2023-02-15T16:40:45.292Z,102235.22
2023-02-15T16:43:18.787Z,102236.34
2023-02-15T16:45:48.217Z,102235.88
2023-02-15T16:48:22.158Z,102233.72
2023-02-15T16:50:53.890Z,102225.88
2023-02-15T16:53:26.176Z,102227.91
2023-02-15T16:55:57.123Z,102228.47
2023-02-15T16:58:30.967Z,102241.63
2023-02-15T17:01:01.718Z,102250.75
2023-02-15T17:03:30.846Z,102247.28
2023-02-15T17:06:01.027Z,102252.78
2023-02-15T17:08:33.635Z,102255.00
2023-02-15T17:11:17.205Z,102252.66
2023-02-15T17:14:03.608Z,102239.28
2023-02-15T17:16:34.213Z,102239.69
2023-02-15T17:19:03.881Z,102234.50
2023-02-15T17:21:35.817Z,102243.28
2023-02-15T17:24:06.141Z,102238.25
2023-02-15T17:26:36.219Z,102239.97
2023-02-15T17:29:14.436Z,102241.00
2023-02-15T17:31:42.866Z,102253.84
2023-02-15T17:34:44.853Z,102240.06
2023-02-15T17:37:14.711Z,102241.53
2023-02-15T17:39:43.996Z,102231.19
2023-02-15T17:42:11.911Z,102232.00
2023-02-15T17:44:39.777Z,102233.94
2023-02-15T17:47:07.957Z,102240.31
2023-02-15T17:49:37.994Z,102244.31
2023-02-15T17:52:06.346Z,102242.91
2023-02-15T17:54:48.140Z,102234.09
2023-02-15T17:57:18.100Z,102242.16
2023-02-15T18:00:03.715Z,102238.56
2023-02-15T18:02:58.327Z,102243.41
2023-02-15T18:05:43.812Z,102246.16
2023-02-15T18:08:32.061Z,102240.03
2023-02-15T18:11:19.173Z,102243.34
2023-02-15T18:13:48.581Z,102237.44
2023-02-15T18:16:18.232Z,102241.69
2023-02-15T18:18:46.714Z,102232.66
2023-02-15T18:21:14.873Z,102236.41
2023-02-15T18:23:43.176Z,102239.44
2023-02-15T18:26:19.668Z,102235.09
2023-02-15T18:28:49.068Z,102228.75
2023-02-15T18:31:17.323Z,102226.78
2023-02-15T18:33:48.334Z,102226.03
2023-02-15T18:36:22.060Z,102226.47
2023-02-15T18:38:50.643Z,102231.22
2023-02-15T18:41:20.339Z,102228.50
2023-02-15T18:43:50.266Z,102227.75
2023-02-15T18:46:18.726Z,102220.91
2023-02-15T18:48:47.343Z,102222.56
2023-02-15T18:51:18.710Z,102222.13
2023-02-15T18:53:48.071Z,102221.50
2023-02-15T18:56:21.211Z,102218.97
2023-02-15T18:58:50.706Z,102223.44
2023-02-15T19:01:20.957Z,102224.66
2023-02-15T19:03:50.045Z,102226.31
2023-02-15T19:06:20.237Z,102215.88
2023-02-15T19:08:50.333Z,102211.66
2023-02-15T19:11:23.062Z,102217.16
2023-02-15T19:13:53.682Z,102214.31
2023-02-15T19:16:31.617Z,102210.22
2023-02-15T19:18:59.869Z,102204.09
2023-02-15T19:21:29.377Z,102212.16
2023-02-15T19:24:00.132Z,102205.38
2023-02-15T19:26:44.447Z,102206.25
2023-02-15T19:29:17.867Z,102192.84
2023-02-15T19:31:45.829Z,102186.72
2023-02-15T19:34:16.659Z,102188.59
2023-02-15T19:36:45.863Z,102186.66
2023-02-15T19:39:24.349Z,102186.47
2023-02-15T19:41:52.954Z,102194.00
2023-02-15T19:44:23.043Z,102186.44
2023-02-15T19:46:50.972Z,102177.66
2023-02-15T19:49:18.855Z,102184.16
2023-02-15T19:51:47.561Z,102165.13
2023-02-15T19:54:24.128Z,102170.75
2023-02-15T19:56:51.956Z,102170.22
2023-02-15T19:59:25.938Z,102168.56
2023-02-15T20:01:54.392Z,102160.56
2023-02-15T20:04:22.626Z,102156.03
2023-02-15T20:06:52.051Z,102160.09
2023-02-15T20:09:25.578Z,102154.47
2023-02-15T20:11:54.147Z,102158.06
2023-02-15T20:14:24.154Z,102151.25
2023-02-15T20:16:52.525Z,102138.88
2023-02-15T20:19:20.463Z,102141.81
2023-02-15T20:21:54.399Z,102144.47
2023-02-15T20:24:23.571Z,102139.16
2023-02-15T20:26:51.442Z,102146.63
2023-02-15T20:29:20.293Z,102134.94
2023-02-15T20:31:49.705Z,102138.34
2023-02-15T20:34:17.672Z,102140.69
2023-02-15T20:36:45.550Z,102141.41
2023-02-15T20:39:16.500Z,102144.94
2023-02-15T20:41:48.204Z,102132.88
2023-02-15T20:44:20.588Z,102139.41
2023-02-15T20:46:50.945Z,102143.13
2023-02-15T20:49:19.176Z,102146.06
2023-02-15T20:51:48.076Z,102148.81
2023-02-15T20:54:18.853Z,102156.78
2023-02-15T20:56:47.404Z,102148.16
2023-02-15T20:59:25.174Z,102144.56
2023-02-15T21:01:58.816Z,102141.22
2023-02-15T21:04:31.364Z,102155.44
2023-02-15T21:06:59.388Z,102149.88
2023-02-15T21:09:27.529Z,102153.63
2023-02-15T21:11:57.386Z,102146.56
2023-02-15T21:14:28.097Z,102161.66
2023-02-15T21:16:57.370Z,102156.34
2023-02-15T21:19:25.723Z,102151.25
2023-02-15T21:21:54.313Z,102140.06
2023-02-15T21:24:25.659Z,102141.88
2023-02-15T21:26:54.987Z,102127.91
2023-02-15T21:29:26.372Z,102133.28
2023-02-15T21:31:54.406Z,102140.72
2023-02-15T21:34:24.107Z,102143.59
2023-02-15T21:36:51.951Z,102152.44
2023-02-15T21:39:22.191Z,102147.63
2023-02-15T21:42:09.549Z,102150.28
2023-02-15T21:44:55.493Z,102153.25
2023-02-15T21:47:48.329Z,102147.34
2023-02-15T21:50:37.109Z,102154.22
2023-02-15T21:53:06.582Z,102151.78
2023-02-15T21:55:34.742Z,102156.88
2023-02-15T21:58:03.086Z,102155.25
2023-02-15T22:00:31.885Z,102157.13
2023-02-15T22:03:01.871Z,102148.22
2023-02-15T22:05:33.144Z,102148.28
2023-02-15T22:08:01.400Z,102146.38
2023-02-15T22:10:32.228Z,102144.56
2023-02-15T22:13:01.966Z,102145.81
2023-02-15T22:15:35.257Z,102138.28
2023-02-15T22:18:03.824Z,102139.25
2023-02-15T22:20:33.205Z,102137.53
2023-02-15T22:23:01.198Z,102133.03
2023-02-15T22:25:29.157Z,102132.25
2023-02-15T22:27:57.217Z,102137.72
2023-02-15T22:30:27.693Z,102135.06
2023-02-15T22:32:56.972Z,102128.34
2023-02-15T22:35:27.681Z,102131.72
2023-02-15T22:37:57.284Z,102136.47
2023-02-15T22:40:30.524Z,102131.97
2023-02-15T22:42:59.394Z,102133.34
2023-02-15T22:45:29.149Z,102134.47
2023-02-15T22:48:00.425Z,102131.44
2023-02-15T22:50:30.859Z,102136.16
2023-02-15T22:53:02.663Z,102129.88
2023-02-15T22:55:33.916Z,102122.81
2023-02-15T22:58:02.330Z,102120.31
2023-02-15T23:00:33.609Z,102116.78
2023-02-15T23:03:02.280Z,102125.13
2023-02-15T23:05:32.074Z,102124.66
2023-02-15T23:08:01.394Z,102126.13
2023-02-15T23:10:30.532Z,102121.06
2023-02-15T23:13:17.972Z,102123.19
2023-02-15T23:15:48.815Z,102121.06
2023-02-15T23:18:19.980Z,102118.38
2023-02-15T23:20:50.579Z,102113.00
2023-02-15T23:23:25.602Z,102119.78
2023-02-15T23:25:53.527Z,102124.44
2023-02-15T23:28:25.460Z,102123.47
2023-02-15T23:30:53.710Z,102122.69
2023-02-15T23:33:23.632Z,102111.91
2023-02-15T23:35:52.153Z,102112.28
2023-02-15T23:38:26.356Z,102126.75
2023-02-15T23:41:14.978Z,102118.84
2023-02-15T23:43:44.942Z,102129.47
2023-02-15T23:46:23.694Z,102125.78
2023-02-15T23:48:52.903Z,102132.13
2023-02-15T23:51:21.892Z,102124.22
2023-02-15T23:53:51.161Z,102127.13
2023-02-15T23:56:19.051Z,102121.66
2023-02-15T23:58:47.784Z,102125.25
